sensor_id;sensor_type;location;lat;lon;timestamp;P1;durP1;ratioP1;P2;durP2;ratioP2
32445;SDS011;18899;50.748;7.102;2022-10-17T00:01:40;3.70;;;2.30;;
32445;SDS011;18899;50.748;7.102;2022-10-17T00:04:06;4.38;;;2.42;;
32445;SDS011;18899;50.748;7.102;2022-10-17T00:06:31;4.80;;;2.90;;
32445;SDS011;18899;50.748;7.102;2022-10-17T00:08:57;5.03;;;3.40;;
32445;SDS011;18899;50.748;7.102;2022-10-17T00:11:23;9.23;;;3.40;;
32445;SDS011;18899;50.748;7.102;2022-10-17T00:13:49;5.50;;;2.90;;
32445;SDS011;18899;50.748;7.102;2022-10-17T00:16:27;3.47;;;2.50;;
32445;SDS011;18899;50.748;7.102;2022-10-17T00:18:56;4.50;;;2.50;;
32445;SDS011;18899;50.748;7.102;2022-10-17T00:21:22;6.97;;;2.50;;
32445;SDS011;18899;50.748;7.102;2022-10-17T00:23:48;6.38;;;2.30;;
32445;SDS011;18899;50.748;7.102;2022-10-17T00:26:14;5.90;;;2.90;;
32445;SDS011;18899;50.748;7.102;2022-10-17T00:28:40;8.85;;;2.80;;
32445;SDS011;18899;50.748;7.102;2022-10-17T00:31:06;5.65;;;2.67;;
32445;SDS011;18899;50.748;7.102;2022-10-17T00:33:32;3.53;;;2.58;;
32445;SDS011;18899;50.748;7.102;2022-10-17T00:36:03;6.20;;;2.45;;
32445;SDS011;18899;50.748;7.102;2022-10-17T00:38:34;5.13;;;2.38;;
32445;SDS011;18899;50.748;7.102;2022-10-17T00:41:00;4.13;;;2.63;;
32445;SDS011;18899;50.748;7.102;2022-10-17T00:43:26;7.63;;;2.72;;
32445;SDS011;18899;50.748;7.102;2022-10-17T00:45:51;4.68;;;2.67;;
32445;SDS011;18899;50.748;7.102;2022-10-17T00:48:17;5.40;;;2.85;;
32445;SDS011;18899;50.748;7.102;2022-10-17T00:50:43;4.35;;;2.90;;
32445;SDS011;18899;50.748;7.102;2022-10-17T00:53:12;3.35;;;2.45;;
32445;SDS011;18899;50.748;7.102;2022-10-17T00:55:48;7.25;;;2.55;;
32445;SDS011;18899;50.748;7.102;2022-10-17T00:58:17;7.45;;;2.83;;
32445;SDS011;18899;50.748;7.102;2022-10-17T01:00:44;3.08;;;2.53;;
32445;SDS011;18899;50.748;7.102;2022-10-17T01:03:11;3.78;;;2.47;;
32445;SDS011;18899;50.748;7.102;2022-10-17T01:05:37;5.25;;;2.90;;
32445;SDS011;18899;50.748;7.102;2022-10-17T01:08:04;4.20;;;2.55;;
32445;SDS011;18899;50.748;7.102;2022-10-17T01:10:32;4.15;;;2.75;;
32445;SDS011;18899;50.748;7.102;2022-10-17T01:13:10;6.10;;;2.80;;
32445;SDS011;18899;50.748;7.102;2022-10-17T01:15:58;4.40;;;2.63;;
32445;SDS011;18899;50.748;7.102;2022-10-17T01:21:13;5.18;;;2.75;;
32445;SDS011;18899;50.748;7.102;2022-10-17T01:24:20;3.47;;;2.60;;
32445;SDS011;18899;50.748;7.102;2022-10-17T01:33:10;5.60;;;2.80;;
32445;SDS011;18899;50.748;7.102;2022-10-17T01:35:55;6.50;;;2.95;;
32445;SDS011;18899;50.748;7.102;2022-10-17T01:38:26;4.65;;;2.58;;
32445;SDS011;18899;50.748;7.102;2022-10-17T01:51:02;4.15;;;2.85;;
32445;SDS011;18899;50.748;7.102;2022-10-17T01:53:38;6.30;;;3.30;;
32445;SDS011;18899;50.748;7.102;2022-10-17T01:56:08;3.15;;;2.30;;
32445;SDS011;18899;50.748;7.102;2022-10-17T01:58:38;5.25;;;2.65;;
32445;SDS011;18899;50.748;7.102;2022-10-17T02:01:09;5.90;;;2.85;;
32445;SDS011;18899;50.748;7.102;2022-10-17T02:03:37;3.65;;;2.60;;
32445;SDS011;18899;50.748;7.102;2022-10-17T02:06:06;6.45;;;2.40;;
32445;SDS011;18899;50.748;7.102;2022-10-17T02:08:41;4.63;;;2.58;;
32445;SDS011;18899;50.748;7.102;2022-10-17T02:11:16;5.70;;;2.75;;
32445;SDS011;18899;50.748;7.102;2022-10-17T02:16:20;4.35;;;3.10;;
32445;SDS011;18899;50.748;7.102;2022-10-17T02:21:56;5.43;;;2.63;;
32445;SDS011;18899;50.748;7.102;2022-10-17T02:33:26;6.88;;;2.80;;
32445;SDS011;18899;50.748;7.102;2022-10-17T02:35:40;6.63;;;2.63;;
32445;SDS011;18899;50.748;7.102;2022-10-17T02:38:10;3.92;;;2.40;;
32445;SDS011;18899;50.748;7.102;2022-10-17T02:40:37;3.95;;;2.28;;
32445;SDS011;18899;50.748;7.102;2022-10-17T02:43:04;5.63;;;2.47;;
32445;SDS011;18899;50.748;7.102;2022-10-17T02:45:30;4.97;;;2.70;;
32445;SDS011;18899;50.748;7.102;2022-10-17T02:53:33;3.20;;;2.30;;
32445;SDS011;18899;50.748;7.102;2022-10-17T02:56:13;4.13;;;2.47;;
32445;SDS011;18899;50.748;7.102;2022-10-17T02:58:42;6.93;;;2.65;;
32445;SDS011;18899;50.748;7.102;2022-10-17T03:01:15;2.95;;;2.35;;
32445;SDS011;18899;50.748;7.102;2022-10-17T03:03:42;7.30;;;2.15;;
32445;SDS011;18899;50.748;7.102;2022-10-17T03:06:07;11.50;;;3.05;;
32445;SDS011;18899;50.748;7.102;2022-10-17T03:08:33;5.93;;;2.63;;
32445;SDS011;18899;50.748;7.102;2022-10-17T03:10:58;3.47;;;2.20;;
32445;SDS011;18899;50.748;7.102;2022-10-17T03:13:24;5.85;;;2.50;;
32445;SDS011;18899;50.748;7.102;2022-10-17T03:15:49;3.90;;;2.40;;
32445;SDS011;18899;50.748;7.102;2022-10-17T03:18:15;3.67;;;2.70;;
32445;SDS011;18899;50.748;7.102;2022-10-17T03:20:40;4.90;;;2.45;;
32445;SDS011;18899;50.748;7.102;2022-10-17T03:23:06;6.70;;;2.72;;
32445;SDS011;18899;50.748;7.102;2022-10-17T03:25:31;4.75;;;2.47;;
32445;SDS011;18899;50.748;7.102;2022-10-17T03:27:58;4.72;;;2.58;;
32445;SDS011;18899;50.748;7.102;2022-10-17T03:30:24;5.93;;;2.60;;
32445;SDS011;18899;50.748;7.102;2022-10-17T03:32:50;5.40;;;2.47;;
32445;SDS011;18899;50.748;7.102;2022-10-17T03:35:15;7.18;;;3.00;;
32445;SDS011;18899;50.748;7.102;2022-10-17T03:37:41;6.43;;;2.58;;
32445;SDS011;18899;50.748;7.102;2022-10-17T03:40:06;6.45;;;2.75;;
32445;SDS011;18899;50.748;7.102;2022-10-17T03:42:32;15.18;;;3.25;;
32445;SDS011;18899;50.748;7.102;2022-10-17T03:44:57;4.05;;;2.30;;
32445;SDS011;18899;50.748;7.102;2022-10-17T03:47:23;5.95;;;2.50;;
32445;SDS011;18899;50.748;7.102;2022-10-17T03:49:49;7.53;;;2.25;;
32445;SDS011;18899;50.748;7.102;2022-10-17T03:52:14;4.53;;;2.55;;
32445;SDS011;18899;50.748;7.102;2022-10-17T03:54:40;8.90;;;2.75;;
32445;SDS011;18899;50.748;7.102;2022-10-17T03:57:06;6.60;;;2.92;;
32445;SDS011;18899;50.748;7.102;2022-10-17T03:59:31;5.15;;;2.83;;
32445;SDS011;18899;50.748;7.102;2022-10-17T04:01:57;3.67;;;2.45;;
32445;SDS011;18899;50.748;7.102;2022-10-17T04:04:22;5.20;;;2.53;;
32445;SDS011;18899;50.748;7.102;2022-10-17T04:06:48;4.53;;;2.50;;
32445;SDS011;18899;50.748;7.102;2022-10-17T04:09:13;5.38;;;2.70;;
32445;SDS011;18899;50.748;7.102;2022-10-17T04:11:39;5.40;;;2.47;;
32445;SDS011;18899;50.748;7.102;2022-10-17T04:14:05;3.90;;;2.67;;
32445;SDS011;18899;50.748;7.102;2022-10-17T04:16:30;5.70;;;2.47;;
32445;SDS011;18899;50.748;7.102;2022-10-17T04:18:57;3.83;;;2.78;;
32445;SDS011;18899;50.748;7.102;2022-10-17T04:21:24;6.80;;;2.60;;
32445;SDS011;18899;50.748;7.102;2022-10-17T04:23:52;7.10;;;2.50;;
32445;SDS011;18899;50.748;7.102;2022-10-17T04:26:18;8.45;;;2.75;;
32445;SDS011;18899;50.748;7.102;2022-10-17T04:28:44;4.53;;;2.42;;
32445;SDS011;18899;50.748;7.102;2022-10-17T04:31:11;7.32;;;2.88;;
32445;SDS011;18899;50.748;7.102;2022-10-17T04:33:38;6.40;;;2.65;;
32445;SDS011;18899;50.748;7.102;2022-10-17T04:36:05;4.93;;;2.65;;
32445;SDS011;18899;50.748;7.102;2022-10-17T04:38:35;3.33;;;2.63;;
32445;SDS011;18899;50.748;7.102;2022-10-17T04:41:01;8.45;;;2.63;;
32445;SDS011;18899;50.748;7.102;2022-10-17T04:43:28;5.80;;;2.80;;
32445;SDS011;18899;50.748;7.102;2022-10-17T04:45:59;3.22;;;2.30;;
32445;SDS011;18899;50.748;7.102;2022-10-17T04:48:26;4.22;;;2.63;;
32445;SDS011;18899;50.748;7.102;2022-10-17T04:50:56;3.15;;;2.33;;
32445;SDS011;18899;50.748;7.102;2022-10-17T04:53:23;5.60;;;2.65;;
32445;SDS011;18899;50.748;7.102;2022-10-17T04:55:49;5.03;;;2.75;;
32445;SDS011;18899;50.748;7.102;2022-10-17T04:58:14;7.13;;;2.55;;
32445;SDS011;18899;50.748;7.102;2022-10-17T05:00:40;6.82;;;2.33;;
32445;SDS011;18899;50.748;7.102;2022-10-17T05:03:06;4.13;;;2.53;;
32445;SDS011;18899;50.748;7.102;2022-10-17T05:05:32;6.13;;;2.47;;
32445;SDS011;18899;50.748;7.102;2022-10-17T05:07:57;5.15;;;2.85;;
32445;SDS011;18899;50.748;7.102;2022-10-17T05:10:23;6.05;;;2.53;;
32445;SDS011;18899;50.748;7.102;2022-10-17T05:12:49;4.45;;;2.53;;
32445;SDS011;18899;50.748;7.102;2022-10-17T05:15:15;6.35;;;2.58;;
32445;SDS011;18899;50.748;7.102;2022-10-17T05:17:40;3.97;;;2.30;;
32445;SDS011;18899;50.748;7.102;2022-10-17T05:20:06;5.88;;;2.33;;
32445;SDS011;18899;50.748;7.102;2022-10-17T05:22:32;4.72;;;2.72;;
32445;SDS011;18899;50.748;7.102;2022-10-17T05:24:58;4.25;;;2.50;;
32445;SDS011;18899;50.748;7.102;2022-10-17T05:27:23;7.88;;;2.40;;
32445;SDS011;18899;50.748;7.102;2022-10-17T05:29:49;7.25;;;2.60;;
32445;SDS011;18899;50.748;7.102;2022-10-17T05:32:15;7.80;;;2.80;;
32445;SDS011;18899;50.748;7.102;2022-10-17T05:34:40;7.57;;;2.70;;
32445;SDS011;18899;50.748;7.102;2022-10-17T05:37:06;3.42;;;2.20;;
32445;SDS011;18899;50.748;7.102;2022-10-17T05:39:31;7.75;;;2.80;;
32445;SDS011;18899;50.748;7.102;2022-10-17T05:41:57;5.28;;;2.58;;
32445;SDS011;18899;50.748;7.102;2022-10-17T05:44:22;5.47;;;2.47;;
32445;SDS011;18899;50.748;7.102;2022-10-17T05:46:48;4.50;;;2.80;;
32445;SDS011;18899;50.748;7.102;2022-10-17T05:49:14;9.00;;;2.50;;
32445;SDS011;18899;50.748;7.102;2022-10-17T05:51:40;2.95;;;2.47;;
32445;SDS011;18899;50.748;7.102;2022-10-17T05:54:06;5.72;;;2.85;;
32445;SDS011;18899;50.748;7.102;2022-10-17T05:56:32;4.55;;;2.85;;
32445;SDS011;18899;50.748;7.102;2022-10-17T05:58:58;4.35;;;2.50;;
32445;SDS011;18899;50.748;7.102;2022-10-17T06:01:24;5.40;;;2.67;;
32445;SDS011;18899;50.748;7.102;2022-10-17T06:03:50;9.43;;;4.35;;
32445;SDS011;18899;50.748;7.102;2022-10-17T06:06:16;5.80;;;2.42;;
32445;SDS011;18899;50.748;7.102;2022-10-17T06:08:42;6.50;;;2.70;;
32445;SDS011;18899;50.748;7.102;2022-10-17T06:11:08;6.32;;;2.53;;
32445;SDS011;18899;50.748;7.102;2022-10-17T06:13:33;5.97;;;2.35;;
32445;SDS011;18899;50.748;7.102;2022-10-17T06:15:59;4.75;;;2.38;;
32445;SDS011;18899;50.748;7.102;2022-10-17T06:18:24;5.30;;;2.30;;
32445;SDS011;18899;50.748;7.102;2022-10-17T06:20:50;6.90;;;2.22;;
32445;SDS011;18899;50.748;7.102;2022-10-17T06:23:17;7.00;;;2.60;;
32445;SDS011;18899;50.748;7.102;2022-10-17T06:25:42;5.97;;;2.42;;
32445;SDS011;18899;50.748;7.102;2022-10-17T06:28:08;5.55;;;2.50;;
32445;SDS011;18899;50.748;7.102;2022-10-17T06:30:36;7.00;;;2.80;;
32445;SDS011;18899;50.748;7.102;2022-10-17T06:33:03;2.38;;;1.90;;
32445;SDS011;18899;50.748;7.102;2022-10-17T06:35:29;5.15;;;2.17;;
32445;SDS011;18899;50.748;7.102;2022-10-17T06:37:55;6.95;;;2.20;;
32445;SDS011;18899;50.748;7.102;2022-10-17T06:40:21;11.30;;;2.35;;
32445;SDS011;18899;50.748;7.102;2022-10-17T06:42:46;5.43;;;2.45;;
32445;SDS011;18899;50.748;7.102;2022-10-17T06:45:12;5.57;;;2.20;;
32445;SDS011;18899;50.748;7.102;2022-10-17T06:47:38;3.65;;;1.90;;
32445;SDS011;18899;50.748;7.102;2022-10-17T06:50:03;5.82;;;2.40;;
32445;SDS011;18899;50.748;7.102;2022-10-17T06:52:29;6.65;;;2.30;;
32445;SDS011;18899;50.748;7.102;2022-10-17T06:54:55;7.28;;;1.98;;
32445;SDS011;18899;50.748;7.102;2022-10-17T06:57:20;3.60;;;2.08;;
32445;SDS011;18899;50.748;7.102;2022-10-17T06:59:46;8.75;;;2.35;;
32445;SDS011;18899;50.748;7.102;2022-10-17T07:02:11;9.45;;;2.20;;
32445;SDS011;18899;50.748;7.102;2022-10-17T07:04:37;4.72;;;2.00;;
32445;SDS011;18899;50.748;7.102;2022-10-17T07:07:03;6.22;;;2.45;;
32445;SDS011;18899;50.748;7.102;2022-10-17T07:09:31;8.27;;;2.42;;
32445;SDS011;18899;50.748;7.102;2022-10-17T07:11:57;19.15;;;5.30;;
32445;SDS011;18899;50.748;7.102;2022-10-17T07:14:24;6.13;;;3.03;;
32445;SDS011;18899;50.748;7.102;2022-10-17T07:16:56;5.28;;;1.85;;
32445;SDS011;18899;50.748;7.102;2022-10-17T07:19:22;4.95;;;2.13;;
32445;SDS011;18899;50.748;7.102;2022-10-17T07:21:49;11.07;;;2.28;;
32445;SDS011;18899;50.748;7.102;2022-10-17T07:24:15;5.60;;;2.03;;
32445;SDS011;18899;50.748;7.102;2022-10-17T07:26:40;4.00;;;1.88;;
32445;SDS011;18899;50.748;7.102;2022-10-17T07:29:06;5.68;;;1.98;;
32445;SDS011;18899;50.748;7.102;2022-10-17T07:31:32;10.02;;;2.42;;
32445;SDS011;18899;50.748;7.102;2022-10-17T07:33:58;8.27;;;2.20;;
32445;SDS011;18899;50.748;7.102;2022-10-17T07:36:24;7.63;;;2.20;;
32445;SDS011;18899;50.748;7.102;2022-10-17T07:38:50;3.45;;;2.10;;
32445;SDS011;18899;50.748;7.102;2022-10-17T07:41:15;10.10;;;2.47;;
32445;SDS011;18899;50.748;7.102;2022-10-17T07:43:41;6.25;;;1.90;;
32445;SDS011;18899;50.748;7.102;2022-10-17T07:46:07;9.88;;;2.30;;
32445;SDS011;18899;50.748;7.102;2022-10-17T07:48:35;5.22;;;2.05;;
32445;SDS011;18899;50.748;7.102;2022-10-17T07:51:01;4.55;;;2.00;;
32445;SDS011;18899;50.748;7.102;2022-10-17T07:53:28;8.45;;;1.92;;
32445;SDS011;18899;50.748;7.102;2022-10-17T07:55:53;5.28;;;2.28;;
32445;SDS011;18899;50.748;7.102;2022-10-17T07:58:19;9.52;;;2.15;;
32445;SDS011;18899;50.748;7.102;2022-10-17T08:00:45;3.45;;;1.98;;
32445;SDS011;18899;50.748;7.102;2022-10-17T08:03:14;5.63;;;2.25;;
32445;SDS011;18899;50.748;7.102;2022-10-17T08:05:40;5.03;;;1.95;;
32445;SDS011;18899;50.748;7.102;2022-10-17T08:08:06;10.02;;;2.40;;
32445;SDS011;18899;50.748;7.102;2022-10-17T08:10:31;3.95;;;1.85;;
32445;SDS011;18899;50.748;7.102;2022-10-17T08:12:57;13.23;;;3.35;;
32445;SDS011;18899;50.748;7.102;2022-10-17T08:15:23;8.43;;;2.95;;
32445;SDS011;18899;50.748;7.102;2022-10-17T08:17:50;9.40;;;2.42;;
32445;SDS011;18899;50.748;7.102;2022-10-17T08:20:16;16.33;;;2.80;;
32445;SDS011;18899;50.748;7.102;2022-10-17T08:22:49;9.02;;;2.10;;
32445;SDS011;18899;50.748;7.102;2022-10-17T08:25:16;3.53;;;2.47;;
32445;SDS011;18899;50.748;7.102;2022-10-17T08:27:41;8.13;;;1.85;;
32445;SDS011;18899;50.748;7.102;2022-10-17T08:30:07;6.82;;;2.05;;
32445;SDS011;18899;50.748;7.102;2022-10-17T08:32:33;6.03;;;2.05;;
32445;SDS011;18899;50.748;7.102;2022-10-17T08:34:59;3.25;;;1.95;;
32445;SDS011;18899;50.748;7.102;2022-10-17T08:37:25;4.72;;;1.83;;
32445;SDS011;18899;50.748;7.102;2022-10-17T08:39:50;6.22;;;2.42;;
32445;SDS011;18899;50.748;7.102;2022-10-17T08:47:45;8.38;;;1.92;;
32445;SDS011;18899;50.748;7.102;2022-10-17T08:50:16;3.05;;;1.90;;
32445;SDS011;18899;50.748;7.102;2022-10-17T08:55:46;4.88;;;1.73;;
32445;SDS011;18899;50.748;7.102;2022-10-17T09:03:36;4.78;;;1.80;;
32445;SDS011;18899;50.748;7.102;2022-10-17T09:06:29;3.22;;;1.63;;
32445;SDS011;18899;50.748;7.102;2022-10-17T09:09:39;8.13;;;2.10;;
32445;SDS011;18899;50.748;7.102;2022-10-17T09:20:23;6.97;;;1.98;;
32445;SDS011;18899;50.748;7.102;2022-10-17T09:25:30;3.13;;;1.85;;
32445;SDS011;18899;50.748;7.102;2022-10-17T09:28:13;4.18;;;2.20;;
32445;SDS011;18899;50.748;7.102;2022-10-17T09:33:23;5.50;;;1.58;;
32445;SDS011;18899;50.748;7.102;2022-10-17T09:35:52;6.32;;;2.13;;
32445;SDS011;18899;50.748;7.102;2022-10-17T09:38:20;7.28;;;2.15;;
32445;SDS011;18899;50.748;7.102;2022-10-17T09:40:53;6.28;;;2.05;;
32445;SDS011;18899;50.748;7.102;2022-10-17T09:43:20;6.57;;;1.77;;
32445;SDS011;18899;50.748;7.102;2022-10-17T09:48:39;6.43;;;2.28;;
32445;SDS011;18899;50.748;7.102;2022-10-17T09:51:17;4.32;;;1.88;;
32445;SDS011;18899;50.748;7.102;2022-10-17T09:53:45;4.43;;;1.95;;
32445;SDS011;18899;50.748;7.102;2022-10-17T09:56:19;4.80;;;2.03;;
32445;SDS011;18899;50.748;7.102;2022-10-17T09:58:46;16.17;;;2.03;;
32445;SDS011;18899;50.748;7.102;2022-10-17T10:03:46;5.00;;;1.83;;
32445;SDS011;18899;50.748;7.102;2022-10-17T10:06:15;7.90;;;2.13;;
32445;SDS011;18899;50.748;7.102;2022-10-17T10:08:56;9.52;;;3.13;;
32445;SDS011;18899;50.748;7.102;2022-10-17T10:11:48;7.60;;;2.28;;
32445;SDS011;18899;50.748;7.102;2022-10-17T10:14:22;4.72;;;2.05;;
32445;SDS011;18899;50.748;7.102;2022-10-17T10:16:48;3.05;;;1.70;;
32445;SDS011;18899;50.748;7.102;2022-10-17T10:19:36;5.15;;;1.92;;
32445;SDS011;18899;50.748;7.102;2022-10-17T10:22:07;9.20;;;2.15;;
32445;SDS011;18899;50.748;7.102;2022-10-17T10:24:40;6.78;;;1.90;;
32445;SDS011;18899;50.748;7.102;2022-10-17T10:27:09;4.85;;;1.88;;
32445;SDS011;18899;50.748;7.102;2022-10-17T10:29:40;3.50;;;1.70;;
32445;SDS011;18899;50.748;7.102;2022-10-17T10:34:35;3.90;;;1.70;;
32445;SDS011;18899;50.748;7.102;2022-10-17T10:37:16;4.93;;;1.60;;
32445;SDS011;18899;50.748;7.102;2022-10-17T10:39:56;6.18;;;1.90;;
32445;SDS011;18899;50.748;7.102;2022-10-17T10:42:24;5.20;;;1.92;;
32445;SDS011;18899;50.748;7.102;2022-10-17T10:44:50;3.80;;;1.80;;
32445;SDS011;18899;50.748;7.102;2022-10-17T10:47:22;4.55;;;1.65;;
32445;SDS011;18899;50.748;7.102;2022-10-17T10:49:51;7.07;;;2.03;;
32445;SDS011;18899;50.748;7.102;2022-10-17T10:52:39;3.30;;;1.83;;
32445;SDS011;18899;50.748;7.102;2022-10-17T10:55:26;3.70;;;1.55;;
32445;SDS011;18899;50.748;7.102;2022-10-17T10:57:57;3.20;;;1.60;;
32445;SDS011;18899;50.748;7.102;2022-10-17T11:00:27;7.30;;;1.52;;
32445;SDS011;18899;50.748;7.102;2022-10-17T11:03:01;3.33;;;1.55;;
32445;SDS011;18899;50.748;7.102;2022-10-17T11:05:39;7.90;;;1.55;;
32445;SDS011;18899;50.748;7.102;2022-10-17T11:13:24;2.75;;;1.40;;
32445;SDS011;18899;50.748;7.102;2022-10-17T11:15:58;4.38;;;2.22;;
32445;SDS011;18899;50.748;7.102;2022-10-17T11:21:19;5.18;;;1.70;;
32445;SDS011;18899;50.748;7.102;2022-10-17T11:24:15;4.38;;;1.60;;
32445;SDS011;18899;50.748;7.102;2022-10-17T11:29:43;4.90;;;1.70;;
32445;SDS011;18899;50.748;7.102;2022-10-17T11:32:11;4.25;;;1.88;;
32445;SDS011;18899;50.748;7.102;2022-10-17T11:34:44;6.13;;;1.83;;
32445;SDS011;18899;50.748;7.102;2022-10-17T11:37:15;4.97;;;1.60;;
32445;SDS011;18899;50.748;7.102;2022-10-17T11:39:55;6.43;;;1.90;;
32445;SDS011;18899;50.748;7.102;2022-10-17T11:44:53;8.77;;;1.60;;
32445;SDS011;18899;50.748;7.102;2022-10-17T11:50:24;8.07;;;2.28;;
32445;SDS011;18899;50.748;7.102;2022-10-17T11:55:43;5.60;;;1.60;;
32445;SDS011;18899;50.748;7.102;2022-10-17T12:06:51;5.55;;;2.10;;
32445;SDS011;18899;50.748;7.102;2022-10-17T12:12:32;5.57;;;1.85;;
32445;SDS011;18899;50.748;7.102;2022-10-17T12:17:42;7.25;;;2.00;;
32445;SDS011;18899;50.748;7.102;2022-10-17T12:20:55;7.70;;;2.40;;
32445;SDS011;18899;50.748;7.102;2022-10-17T12:25:30;3.50;;;1.85;;
32445;SDS011;18899;50.748;7.102;2022-10-17T12:30:26;5.22;;;2.33;;
32445;SDS011;18899;50.748;7.102;2022-10-17T12:35:36;4.00;;;2.00;;
32445;SDS011;18899;50.748;7.102;2022-10-17T12:40:50;8.73;;;1.80;;
32445;SDS011;18899;50.748;7.102;2022-10-17T12:56:11;4.72;;;2.17;;
32445;SDS011;18899;50.748;7.102;2022-10-17T12:58:41;7.35;;;1.92;;
32445;SDS011;18899;50.748;7.102;2022-10-17T13:01:14;7.18;;;2.15;;
32445;SDS011;18899;50.748;7.102;2022-10-17T13:03:46;4.38;;;1.80;;
32445;SDS011;18899;50.748;7.102;2022-10-17T13:06:18;6.97;;;2.00;;
32445;SDS011;18899;50.748;7.102;2022-10-17T13:08:51;11.05;;;2.35;;
32445;SDS011;18899;50.748;7.102;2022-10-17T13:11:22;6.55;;;2.20;;
32445;SDS011;18899;50.748;7.102;2022-10-17T13:13:51;4.93;;;1.92;;
32445;SDS011;18899;50.748;7.102;2022-10-17T13:16:34;4.82;;;1.95;;
32445;SDS011;18899;50.748;7.102;2022-10-17T13:19:13;8.48;;;2.15;;
32445;SDS011;18899;50.748;7.102;2022-10-17T13:21:50;3.40;;;1.77;;
32445;SDS011;18899;50.748;7.102;2022-10-17T13:24:21;5.43;;;2.17;;
32445;SDS011;18899;50.748;7.102;2022-10-17T13:26:51;9.45;;;2.10;;
32445;SDS011;18899;50.748;7.102;2022-10-17T13:29:17;5.90;;;2.05;;
32445;SDS011;18899;50.748;7.102;2022-10-17T13:31:44;5.55;;;2.78;;
32445;SDS011;18899;50.748;7.102;2022-10-17T13:34:18;3.88;;;1.95;;
32445;SDS011;18899;50.748;7.102;2022-10-17T13:36:46;3.83;;;2.25;;
32445;SDS011;18899;50.748;7.102;2022-10-17T13:39:16;6.35;;;2.08;;
32445;SDS011;18899;50.748;7.102;2022-10-17T13:41:43;5.78;;;2.25;;
32445;SDS011;18899;50.748;7.102;2022-10-17T13:44:19;4.68;;;2.20;;
32445;SDS011;18899;50.748;7.102;2022-10-17T13:46:46;3.53;;;1.95;;
32445;SDS011;18899;50.748;7.102;2022-10-17T13:51:55;9.23;;;2.45;;
32445;SDS011;18899;50.748;7.102;2022-10-17T13:54:36;8.18;;;2.20;;
32445;SDS011;18899;50.748;7.102;2022-10-17T14:00:10;7.80;;;1.85;;
32445;SDS011;18899;50.748;7.102;2022-10-17T14:02:42;6.88;;;2.42;;
32445;SDS011;18899;50.748;7.102;2022-10-17T14:07:43;7.05;;;2.10;;
32445;SDS011;18899;50.748;7.102;2022-10-17T14:10:25;5.18;;;2.00;;
32445;SDS011;18899;50.748;7.102;2022-10-17T14:12:55;7.53;;;2.10;;
32445;SDS011;18899;50.748;7.102;2022-10-17T14:15:24;3.05;;;2.08;;
32445;SDS011;18899;50.748;7.102;2022-10-17T14:20:20;9.50;;;2.17;;
32445;SDS011;18899;50.748;7.102;2022-10-17T14:22:47;6.03;;;2.00;;
32445;SDS011;18899;50.748;7.102;2022-10-17T14:25:26;8.13;;;2.33;;
32445;SDS011;18899;50.748;7.102;2022-10-17T14:30:37;12.27;;;2.30;;
32445;SDS011;18899;50.748;7.102;2022-10-17T14:33:21;6.65;;;1.70;;
32445;SDS011;18899;50.748;7.102;2022-10-17T14:35:53;11.18;;;1.67;;
32445;SDS011;18899;50.748;7.102;2022-10-17T14:38:20;5.63;;;2.00;;
32445;SDS011;18899;50.748;7.102;2022-10-17T14:41:00;6.35;;;1.80;;
32445;SDS011;18899;50.748;7.102;2022-10-17T14:43:29;4.90;;;1.80;;
32445;SDS011;18899;50.748;7.102;2022-10-17T14:45:56;7.40;;;2.00;;
32445;SDS011;18899;50.748;7.102;2022-10-17T14:48:25;6.70;;;2.47;;
32445;SDS011;18899;50.748;7.102;2022-10-17T14:51:06;5.20;;;1.83;;
32445;SDS011;18899;50.748;7.102;2022-10-17T14:53:41;6.80;;;1.88;;
32445;SDS011;18899;50.748;7.102;2022-10-17T14:56:22;5.38;;;1.80;;
32445;SDS011;18899;50.748;7.102;2022-10-17T14:58:49;6.88;;;1.60;;
32445;SDS011;18899;50.748;7.102;2022-10-17T15:01:16;11.73;;;1.75;;
32445;SDS011;18899;50.748;7.102;2022-10-17T15:03:41;10.48;;;1.58;;
32445;SDS011;18899;50.748;7.102;2022-10-17T15:06:14;6.55;;;1.70;;
32445;SDS011;18899;50.748;7.102;2022-10-17T15:11:15;6.72;;;1.55;;
32445;SDS011;18899;50.748;7.102;2022-10-17T15:13:40;5.60;;;1.50;;
32445;SDS011;18899;50.748;7.102;2022-10-17T15:16:20;4.78;;;1.30;;
32445;SDS011;18899;50.748;7.102;2022-10-17T15:18:51;5.18;;;1.33;;
32445;SDS011;18899;50.748;7.102;2022-10-17T15:21:18;9.02;;;1.50;;
32445;SDS011;18899;50.748;7.102;2022-10-17T15:23:47;7.82;;;1.50;;
32445;SDS011;18899;50.748;7.102;2022-10-17T15:26:14;5.78;;;1.52;;
32445;SDS011;18899;50.748;7.102;2022-10-17T15:28:42;6.10;;;1.27;;
32445;SDS011;18899;50.748;7.102;2022-10-17T15:31:09;4.75;;;1.30;;
32445;SDS011;18899;50.748;7.102;2022-10-17T15:33:36;3.47;;;1.30;;
32445;SDS011;18899;50.748;7.102;2022-10-17T15:36:02;7.45;;;1.60;;
32445;SDS011;18899;50.748;7.102;2022-10-17T15:38:27;6.70;;;1.60;;
32445;SDS011;18899;50.748;7.102;2022-10-17T15:40:53;10.80;;;1.80;;
32445;SDS011;18899;50.748;7.102;2022-10-17T15:43:20;7.78;;;1.67;;
32445;SDS011;18899;50.748;7.102;2022-10-17T15:45:45;2.55;;;1.27;;
32445;SDS011;18899;50.748;7.102;2022-10-17T15:48:19;7.63;;;1.80;;
32445;SDS011;18899;50.748;7.102;2022-10-17T15:50:52;7.10;;;1.50;;
32445;SDS011;18899;50.748;7.102;2022-10-17T15:53:17;4.38;;;1.20;;
32445;SDS011;18899;50.748;7.102;2022-10-17T15:55:43;7.00;;;1.90;;
32445;SDS011;18899;50.748;7.102;2022-10-17T15:58:11;6.07;;;1.70;;
32445;SDS011;18899;50.748;7.102;2022-10-17T16:00:40;10.23;;;2.20;;
32445;SDS011;18899;50.748;7.102;2022-10-17T16:03:05;6.22;;;1.65;;
32445;SDS011;18899;50.748;7.102;2022-10-17T16:05:31;7.95;;;1.90;;
32445;SDS011;18899;50.748;7.102;2022-10-17T16:07:56;11.27;;;2.17;;
32445;SDS011;18899;50.748;7.102;2022-10-17T16:10:24;11.88;;;1.83;;
32445;SDS011;18899;50.748;7.102;2022-10-17T16:12:50;5.32;;;1.52;;
32445;SDS011;18899;50.748;7.102;2022-10-17T16:15:17;8.35;;;2.03;;
32445;SDS011;18899;50.748;7.102;2022-10-17T16:17:46;8.70;;;1.90;;
32445;SDS011;18899;50.748;7.102;2022-10-17T16:20:12;6.32;;;2.20;;
32445;SDS011;18899;50.748;7.102;2022-10-17T16:22:41;7.20;;;2.00;;
32445;SDS011;18899;50.748;7.102;2022-10-17T16:25:24;9.20;;;2.00;;
32445;SDS011;18899;50.748;7.102;2022-10-17T16:27:52;9.70;;;2.35;;
32445;SDS011;18899;50.748;7.102;2022-10-17T16:30:19;7.63;;;2.25;;
32445;SDS011;18899;50.748;7.102;2022-10-17T16:32:46;4.07;;;1.42;;
32445;SDS011;18899;50.748;7.102;2022-10-17T16:35:19;10.02;;;2.17;;
32445;SDS011;18899;50.748;7.102;2022-10-17T16:37:52;7.97;;;2.17;;
32445;SDS011;18899;50.748;7.102;2022-10-17T16:40:18;4.88;;;1.75;;
32445;SDS011;18899;50.748;7.102;2022-10-17T16:42:44;4.15;;;1.60;;
32445;SDS011;18899;50.748;7.102;2022-10-17T16:45:17;6.25;;;1.75;;
32445;SDS011;18899;50.748;7.102;2022-10-17T16:47:45;4.25;;;1.73;;
32445;SDS011;18899;50.748;7.102;2022-10-17T16:50:11;8.10;;;1.77;;
32445;SDS011;18899;50.748;7.102;2022-10-17T16:52:37;7.20;;;2.28;;
32445;SDS011;18899;50.748;7.102;2022-10-17T16:55:04;6.38;;;1.67;;
32445;SDS011;18899;50.748;7.102;2022-10-17T16:57:30;8.38;;;2.28;;
32445;SDS011;18899;50.748;7.102;2022-10-17T16:59:56;5.72;;;1.92;;
32445;SDS011;18899;50.748;7.102;2022-10-17T17:02:22;6.60;;;1.90;;
32445;SDS011;18899;50.748;7.102;2022-10-17T17:04:47;7.55;;;1.55;;
32445;SDS011;18899;50.748;7.102;2022-10-17T17:07:13;8.07;;;2.97;;
32445;SDS011;18899;50.748;7.102;2022-10-17T17:09:38;6.18;;;2.17;;
32445;SDS011;18899;50.748;7.102;2022-10-17T17:12:04;4.10;;;1.73;;
32445;SDS011;18899;50.748;7.102;2022-10-17T17:14:30;4.50;;;1.88;;
32445;SDS011;18899;50.748;7.102;2022-10-17T17:16:55;8.07;;;1.98;;
32445;SDS011;18899;50.748;7.102;2022-10-17T17:19:21;3.63;;;1.77;;
32445;SDS011;18899;50.748;7.102;2022-10-17T17:21:46;11.35;;;1.70;;
32445;SDS011;18899;50.748;7.102;2022-10-17T17:24:15;6.95;;;2.28;;
32445;SDS011;18899;50.748;7.102;2022-10-17T17:26:41;11.68;;;2.63;;